sensor_id;sensor_type;location;lat;lon;timestamp;temperature;humidity
56725;DHT22;42608;52.776;6.968;2023-12-20T00:02:08;5.90;99.90
56725;DHT22;42608;52.776;6.968;2023-12-20T00:04:33;5.90;99.90
56725;DHT22;42608;52.776;6.968;2023-12-20T00:06:59;5.90;99.90
56725;DHT22;42608;52.776;6.968;2023-12-20T00:09:24;5.90;99.90
56725;DHT22;42608;52.776;6.968;2023-12-20T00:11:50;5.90;99.90
56725;DHT22;42608;52.776;6.968;2023-12-20T00:14:15;5.90;99.90
56725;DHT22;42608;52.776;6.968;2023-12-20T00:16:41;5.90;99.90
56725;DHT22;42608;52.776;6.968;2023-12-20T00:19:07;5.90;99.90
56725;DHT22;42608;52.776;6.968;2023-12-20T00:21:33;6.00;99.90
56725;DHT22;42608;52.776;6.968;2023-12-20T00:23:58;6.00;99.90
56725;DHT22;42608;52.776;6.968;2023-12-20T00:26:24;6.00;99.90
56725;DHT22;42608;52.776;6.968;2023-12-20T00:28:49;5.90;99.90
56725;DHT22;42608;52.776;6.968;2023-12-20T00:31:15;5.90;99.90
56725;DHT22;42608;52.776;6.968;2023-12-20T00:33:40;5.90;99.90
56725;DHT22;42608;52.776;6.968;2023-12-20T00:36:09;5.90;99.90
56725;DHT22;42608;52.776;6.968;2023-12-20T00:38:35;5.90;99.90
56725;DHT22;42608;52.776;6.968;2023-12-20T00:41:00;5.90;99.90
56725;DHT22;42608;52.776;6.968;2023-12-20T00:43:26;5.90;99.90
56725;DHT22;42608;52.776;6.968;2023-12-20T00:45:52;5.80;99.90
56725;DHT22;42608;52.776;6.968;2023-12-20T00:48:17;5.80;99.90
56725;DHT22;42608;52.776;6.968;2023-12-20T00:50:43;5.70;99.90
56725;DHT22;42608;52.776;6.968;2023-12-20T00:53:08;5.70;99.90
56725;DHT22;42608;52.776;6.968;2023-12-20T00:55:34;5.70;99.90
56725;DHT22;42608;52.776;6.968;2023-12-20T00:57:59;5.70;99.90
56725;DHT22;42608;52.776;6.968;2023-12-20T01:00:25;5.60;99.90
56725;DHT22;42608;52.776;6.968;2023-12-20T01:02:51;5.60;99.90
56725;DHT22;42608;52.776;6.968;2023-12-20T01:05:17;5.60;99.90
56725;DHT22;42608;52.776;6.968;2023-12-20T01:07:43;5.60;99.90
56725;DHT22;42608;52.776;6.968;2023-12-20T01:10:08;5.60;99.90
56725;DHT22;42608;52.776;6.968;2023-12-20T01:12:35;5.60;99.90
56725;DHT22;42608;52.776;6.968;2023-12-20T01:15:01;5.60;99.90
56725;DHT22;42608;52.776;6.968;2023-12-20T01:17:26;5.70;99.90
56725;DHT22;42608;52.776;6.968;2023-12-20T01:19:52;5.60;99.90
56725;DHT22;42608;52.776;6.968;2023-12-20T01:22:17;5.60;99.90
56725;DHT22;42608;52.776;6.968;2023-12-20T01:24:43;5.60;99.90
56725;DHT22;42608;52.776;6.968;2023-12-20T01:27:08;5.60;99.90
56725;DHT22;42608;52.776;6.968;2023-12-20T01:29:34;5.60;99.90
56725;DHT22;42608;52.776;6.968;2023-12-20T01:31:59;5.60;99.90
56725;DHT22;42608;52.776;6.968;2023-12-20T01:34:25;5.60;99.90
56725;DHT22;42608;52.776;6.968;2023-12-20T01:36:50;5.60;99.90
56725;DHT22;42608;52.776;6.968;2023-12-20T01:39:17;5.60;99.90
56725;DHT22;42608;52.776;6.968;2023-12-20T01:41:42;5.60;99.90
56725;DHT22;42608;52.776;6.968;2023-12-20T01:44:08;5.60;99.90
56725;DHT22;42608;52.776;6.968;2023-12-20T01:46:33;5.60;99.90
56725;DHT22;42608;52.776;6.968;2023-12-20T01:48:59;5.60;99.90
56725;DHT22;42608;52.776;6.968;2023-12-20T01:51:25;5.60;99.90
56725;DHT22;42608;52.776;6.968;2023-12-20T01:53:52;5.60;99.90
56725;DHT22;42608;52.776;6.968;2023-12-20T01:56:19;5.60;99.90
56725;DHT22;42608;52.776;6.968;2023-12-20T01:58:45;5.60;99.90
56725;DHT22;42608;52.776;6.968;2023-12-20T02:01:11;5.50;99.90
56725;DHT22;42608;52.776;6.968;2023-12-20T02:03:37;5.50;99.90
56725;DHT22;42608;52.776;6.968;2023-12-20T02:06:03;5.50;99.90
56725;DHT22;42608;52.776;6.968;2023-12-20T02:08:30;5.50;99.90
56725;DHT22;42608;52.776;6.968;2023-12-20T02:10:55;5.50;99.90
56725;DHT22;42608;52.776;6.968;2023-12-20T02:13:21;5.50;99.90
56725;DHT22;42608;52.776;6.968;2023-12-20T02:15:47;5.50;99.90
56725;DHT22;42608;52.776;6.968;2023-12-20T02:18:12;5.50;99.90
56725;DHT22;42608;52.776;6.968;2023-12-20T02:20:40;5.50;99.90
56725;DHT22;42608;52.776;6.968;2023-12-20T02:23:06;5.50;99.90
56725;DHT22;42608;52.776;6.968;2023-12-20T02:25:32;5.50;99.90
56725;DHT22;42608;52.776;6.968;2023-12-20T02:27:57;5.50;99.90
56725;DHT22;42608;52.776;6.968;2023-12-20T02:30:23;5.60;99.90
56725;DHT22;42608;52.776;6.968;2023-12-20T02:32:49;5.50;99.90
56725;DHT22;42608;52.776;6.968;2023-12-20T02:35:15;5.60;99.90
56725;DHT22;42608;52.776;6.968;2023-12-20T02:37:40;5.60;99.90
56725;DHT22;42608;52.776;6.968;2023-12-20T02:40:06;5.60;99.90
56725;DHT22;42608;52.776;6.968;2023-12-20T02:42:32;5.70;99.90
56725;DHT22;42608;52.776;6.968;2023-12-20T02:44:57;5.70;99.90
56725;DHT22;42608;52.776;6.968;2023-12-20T02:47:23;5.70;99.90
56725;DHT22;42608;52.776;6.968;2023-12-20T02:49:49;5.80;99.90
56725;DHT22;42608;52.776;6.968;2023-12-20T02:52:14;5.80;99.90
56725;DHT22;42608;52.776;6.968;2023-12-20T02:54:40;5.80;99.90
56725;DHT22;42608;52.776;6.968;2023-12-20T02:57:05;5.80;99.90
56725;DHT22;42608;52.776;6.968;2023-12-20T02:59:31;5.80;99.90
56725;DHT22;42608;52.776;6.968;2023-12-20T03:01:57;5.70;99.90
56725;DHT22;42608;52.776;6.968;2023-12-20T03:04:22;5.80;99.90
56725;DHT22;42608;52.776;6.968;2023-12-20T03:06:48;5.70;99.90
56725;DHT22;42608;52.776;6.968;2023-12-20T03:09:13;5.70;99.90
56725;DHT22;42608;52.776;6.968;2023-12-20T03:11:39;5.70;99.90
56725;DHT22;42608;52.776;6.968;2023-12-20T03:14:05;5.70;99.90
56725;DHT22;42608;52.776;6.968;2023-12-20T03:16:30;5.70;99.90
56725;DHT22;42608;52.776;6.968;2023-12-20T03:18:58;5.80;99.90
56725;DHT22;42608;52.776;6.968;2023-12-20T03:21:24;5.80;99.90
56725;DHT22;42608;52.776;6.968;2023-12-20T03:23:49;5.80;99.90
56725;DHT22;42608;52.776;6.968;2023-12-20T03:26:15;5.80;99.90
56725;DHT22;42608;52.776;6.968;2023-12-20T03:28:40;5.80;99.90
56725;DHT22;42608;52.776;6.968;2023-12-20T03:31:06;5.80;99.90
56725;DHT22;42608;52.776;6.968;2023-12-20T03:33:32;5.80;99.90
56725;DHT22;42608;52.776;6.968;2023-12-20T03:35:57;5.90;99.90
56725;DHT22;42608;52.776;6.968;2023-12-20T03:38:23;5.90;99.90
56725;DHT22;42608;52.776;6.968;2023-12-20T03:40:51;5.90;99.90
56725;DHT22;42608;52.776;6.968;2023-12-20T03:43:17;5.90;99.90
56725;DHT22;42608;52.776;6.968;2023-12-20T03:45:42;5.90;99.90
56725;DHT22;42608;52.776;6.968;2023-12-20T03:48:08;5.90;99.90
56725;DHT22;42608;52.776;6.968;2023-12-20T03:50:34;5.90;99.90
56725;DHT22;42608;52.776;6.968;2023-12-20T03:53:00;5.90;99.90
56725;DHT22;42608;52.776;6.968;2023-12-20T03:55:26;5.90;99.90
56725;DHT22;42608;52.776;6.968;2023-12-20T03:57:51;5.90;99.90
56725;DHT22;42608;52.776;6.968;2023-12-20T04:00:17;5.90;99.90
56725;DHT22;42608;52.776;6.968;2023-12-20T04:02:42;5.90;99.90
56725;DHT22;42608;52.776;6.968;2023-12-20T04:05:08;5.90;99.90
56725;DHT22;42608;52.776;6.968;2023-12-20T04:07:35;5.90;99.90
56725;DHT22;42608;52.776;6.968;2023-12-20T04:10:00;5.90;99.90
56725;DHT22;42608;52.776;6.968;2023-12-20T04:12:27;5.90;99.90
56725;DHT22;42608;52.776;6.968;2023-12-20T04:14:52;5.80;99.90
56725;DHT22;42608;52.776;6.968;2023-12-20T04:17:18;5.90;99.90
56725;DHT22;42608;52.776;6.968;2023-12-20T04:19:43;5.90;99.90
56725;DHT22;42608;52.776;6.968;2023-12-20T04:22:09;5.90;99.90
56725;DHT22;42608;52.776;6.968;2023-12-20T04:24:34;6.00;99.90
56725;DHT22;42608;52.776;6.968;2023-12-20T04:27:00;5.90;99.90
56725;DHT22;42608;52.776;6.968;2023-12-20T04:29:26;6.00;99.90
56725;DHT22;42608;52.776;6.968;2023-12-20T04:31:51;6.00;99.90
56725;DHT22;42608;52.776;6.968;2023-12-20T04:34:17;6.00;99.90
56725;DHT22;42608;52.776;6.968;2023-12-20T04:36:43;6.00;99.90
56725;DHT22;42608;52.776;6.968;2023-12-20T04:39:08;5.90;99.90
56725;DHT22;42608;52.776;6.968;2023-12-20T04:41:34;5.90;99.90
56725;DHT22;42608;52.776;6.968;2023-12-20T04:43:59;5.90;99.90
56725;DHT22;42608;52.776;6.968;2023-12-20T04:46:26;5.90;99.90
56725;DHT22;42608;52.776;6.968;2023-12-20T04:48:51;5.90;99.90
56725;DHT22;42608;52.776;6.968;2023-12-20T04:51:17;6.00;99.90
56725;DHT22;42608;52.776;6.968;2023-12-20T04:53:43;5.90;99.90
56725;DHT22;42608;52.776;6.968;2023-12-20T04:56:08;6.00;99.90
56725;DHT22;42608;52.776;6.968;2023-12-20T04:58:34;6.00;99.90
56725;DHT22;42608;52.776;6.968;2023-12-20T05:00:59;6.00;99.90
56725;DHT22;42608;52.776;6.968;2023-12-20T05:03:25;6.10;99.90
56725;DHT22;42608;52.776;6.968;2023-12-20T05:05:50;6.00;99.90
56725;DHT22;42608;52.776;6.968;2023-12-20T05:08:16;6.10;99.90
56725;DHT22;42608;52.776;6.968;2023-12-20T05:10:42;6.10;99.90
56725;DHT22;42608;52.776;6.968;2023-12-20T05:13:07;6.10;99.90
56725;DHT22;42608;52.776;6.968;2023-12-20T05:15:33;6.20;99.90
56725;DHT22;42608;52.776;6.968;2023-12-20T05:17:58;6.10;99.90
56725;DHT22;42608;52.776;6.968;2023-12-20T05:20:24;6.20;99.90
56725;DHT22;42608;52.776;6.968;2023-12-20T05:22:50;6.20;99.90
56725;DHT22;42608;52.776;6.968;2023-12-20T05:25:15;6.20;99.90
56725;DHT22;42608;52.776;6.968;2023-12-20T05:27:41;6.30;99.90
56725;DHT22;42608;52.776;6.968;2023-12-20T05:30:06;6.30;99.90
56725;DHT22;42608;52.776;6.968;2023-12-20T05:32:32;6.30;99.90
56725;DHT22;42608;52.776;6.968;2023-12-20T05:34:58;6.30;99.90
56725;DHT22;42608;52.776;6.968;2023-12-20T05:37:23;6.30;99.90
56725;DHT22;42608;52.776;6.968;2023-12-20T05:39:49;6.30;99.90
56725;DHT22;42608;52.776;6.968;2023-12-20T05:42:14;6.30;99.90
56725;DHT22;42608;52.776;6.968;2023-12-20T05:44:40;6.40;99.90
56725;DHT22;42608;52.776;6.968;2023-12-20T05:47:06;6.40;99.90
56725;DHT22;42608;52.776;6.968;2023-12-20T05:49:31;6.40;99.90
56725;DHT22;42608;52.776;6.968;2023-12-20T05:51:57;6.40;99.90
56725;DHT22;42608;52.776;6.968;2023-12-20T05:54:22;6.40;99.90
56725;DHT22;42608;52.776;6.968;2023-12-20T05:56:48;6.50;99.90
56725;DHT22;42608;52.776;6.968;2023-12-20T05:59:14;6.50;99.90
56725;DHT22;42608;52.776;6.968;2023-12-20T06:01:39;6.50;99.90
56725;DHT22;42608;52.776;6.968;2023-12-20T06:04:05;6.50;99.90
56725;DHT22;42608;52.776;6.968;2023-12-20T06:06:30;6.40;99.90
56725;DHT22;42608;52.776;6.968;2023-12-20T06:08:56;6.50;99.90
56725;DHT22;42608;52.776;6.968;2023-12-20T06:11:22;6.50;99.90
56725;DHT22;42608;52.776;6.968;2023-12-20T06:13:47;6.50;99.90
56725;DHT22;42608;52.776;6.968;2023-12-20T06:16:14;6.50;99.90
56725;DHT22;42608;52.776;6.968;2023-12-20T06:18:40;6.50;99.90
56725;DHT22;42608;52.776;6.968;2023-12-20T06:21:05;6.50;99.90
56725;DHT22;42608;52.776;6.968;2023-12-20T06:23:32;6.60;99.90
56725;DHT22;42608;52.776;6.968;2023-12-20T06:25:58;6.60;99.90
56725;DHT22;42608;52.776;6.968;2023-12-20T06:28:23;6.60;99.90
56725;DHT22;42608;52.776;6.968;2023-12-20T06:30:49;6.60;99.90
56725;DHT22;42608;52.776;6.968;2023-12-20T06:33:15;6.60;99.90
56725;DHT22;42608;52.776;6.968;2023-12-20T06:35:40;6.60;99.90
56725;DHT22;42608;52.776;6.968;2023-12-20T06:38:06;6.70;99.90
56725;DHT22;42608;52.776;6.968;2023-12-20T06:40:31;6.70;99.90
56725;DHT22;42608;52.776;6.968;2023-12-20T06:42:57;6.70;99.90
56725;DHT22;42608;52.776;6.968;2023-12-20T06:45:23;6.70;99.90
56725;DHT22;42608;52.776;6.968;2023-12-20T06:47:48;6.70;99.90
56725;DHT22;42608;52.776;6.968;2023-12-20T06:50:14;6.80;99.90
56725;DHT22;42608;52.776;6.968;2023-12-20T06:52:39;6.80;99.90
56725;DHT22;42608;52.776;6.968;2023-12-20T06:55:05;6.80;99.90
56725;DHT22;42608;52.776;6.968;2023-12-20T06:57:31;6.80;99.90
56725;DHT22;42608;52.776;6.968;2023-12-20T06:59:56;6.80;99.90
56725;DHT22;42608;52.776;6.968;2023-12-20T07:02:23;6.80;99.90
56725;DHT22;42608;52.776;6.968;2023-12-20T07:04:48;6.80;99.90
56725;DHT22;42608;52.776;6.968;2023-12-20T07:07:14;6.80;99.90
56725;DHT22;42608;52.776;6.968;2023-12-20T07:09:40;6.80;99.90
56725;DHT22;42608;52.776;6.968;2023-12-20T07:12:08;6.80;99.90
56725;DHT22;42608;52.776;6.968;2023-12-20T07:14:33;6.80;99.90
56725;DHT22;42608;52.776;6.968;2023-12-20T07:16:59;6.80;99.90
56725;DHT22;42608;52.776;6.968;2023-12-20T07:19:24;6.80;99.90
56725;DHT22;42608;52.776;6.968;2023-12-20T07:21:50;6.80;99.90
56725;DHT22;42608;52.776;6.968;2023-12-20T07:24:16;6.80;99.90
56725;DHT22;42608;52.776;6.968;2023-12-20T07:26:41;6.80;99.90
56725;DHT22;42608;52.776;6.968;2023-12-20T07:29:07;6.80;99.90
56725;DHT22;42608;52.776;6.968;2023-12-20T07:31:32;6.90;99.90
56725;DHT22;42608;52.776;6.968;2023-12-20T07:33:58;6.80;99.90
56725;DHT22;42608;52.776;6.968;2023-12-20T07:36:24;6.90;99.90
56725;DHT22;42608;52.776;6.968;2023-12-20T07:38:49;6.90;99.90
56725;DHT22;42608;52.776;6.968;2023-12-20T07:41:15;6.90;99.90
56725;DHT22;42608;52.776;6.968;2023-12-20T07:43:46;6.90;99.90
56725;DHT22;42608;52.776;6.968;2023-12-20T07:46:12;7.00;99.90
56725;DHT22;42608;52.776;6.968;2023-12-20T07:48:37;7.00;99.90
56725;DHT22;42608;52.776;6.968;2023-12-20T07:51:03;7.00;99.90
56725;DHT22;42608;52.776;6.968;2023-12-20T07:53:29;7.00;99.90
56725;DHT22;42608;52.776;6.968;2023-12-20T07:55:55;7.00;99.90
56725;DHT22;42608;52.776;6.968;2023-12-20T07:58:20;7.00;99.90
56725;DHT22;42608;52.776;6.968;2023-12-20T08:00:47;7.00;99.90
56725;DHT22;42608;52.776;6.968;2023-12-20T08:03:12;7.00;99.90
56725;DHT22;42608;52.776;6.968;2023-12-20T08:05:38;7.00;99.90
56725;DHT22;42608;52.776;6.968;2023-12-20T08:08:06;7.00;99.90
56725;DHT22;42608;52.776;6.968;2023-12-20T08:10:31;7.00;99.90
56725;DHT22;42608;52.776;6.968;2023-12-20T08:12:57;7.10;99.90
56725;DHT22;42608;52.776;6.968;2023-12-20T08:15:22;7.00;99.90
56725;DHT22;42608;52.776;6.968;2023-12-20T08:17:49;7.10;99.90
56725;DHT22;42608;52.776;6.968;2023-12-20T08:20:16;7.10;99.90
56725;DHT22;42608;52.776;6.968;2023-12-20T08:22:42;7.10;99.90
56725;DHT22;42608;52.776;6.968;2023-12-20T08:25:07;7.10;99.90
56725;DHT22;42608;52.776;6.968;2023-12-20T08:27:34;7.10;99.90
56725;DHT22;42608;52.776;6.968;2023-12-20T08:30:01;7.10;99.90
56725;DHT22;42608;52.776;6.968;2023-12-20T08:32:27;7.20;99.90
56725;DHT22;42608;52.776;6.968;2023-12-20T08:34:53;7.20;99.90
56725;DHT22;42608;52.776;6.968;2023-12-20T08:37:18;7.20;99.90
56725;DHT22;42608;52.776;6.968;2023-12-20T08:39:44;7.20;99.90
56725;DHT22;42608;52.776;6.968;2023-12-20T08:42:09;7.20;99.90
56725;DHT22;42608;52.776;6.968;2023-12-20T08:44:35;7.20;99.90
56725;DHT22;42608;52.776;6.968;2023-12-20T08:47:01;7.30;99.90
56725;DHT22;42608;52.776;6.968;2023-12-20T08:49:26;7.30;99.90
56725;DHT22;42608;52.776;6.968;2023-12-20T08:51:53;7.30;99.90
56725;DHT22;42608;52.776;6.968;2023-12-20T08:54:18;7.40;99.90
56725;DHT22;42608;52.776;6.968;2023-12-20T08:56:45;7.40;99.90
56725;DHT22;42608;52.776;6.968;2023-12-20T08:59:11;7.40;99.90
56725;DHT22;42608;52.776;6.968;2023-12-20T09:01:37;7.50;99.90
56725;DHT22;42608;52.776;6.968;2023-12-20T09:04:02;7.50;99.90
56725;DHT22;42608;52.776;6.968;2023-12-20T09:06:28;7.50;99.90
56725;DHT22;42608;52.776;6.968;2023-12-20T09:08:54;7.50;99.90
56725;DHT22;42608;52.776;6.968;2023-12-20T09:11:19;7.50;99.90
56725;DHT22;42608;52.776;6.968;2023-12-20T09:13:45;7.50;99.90
56725;DHT22;42608;52.776;6.968;2023-12-20T09:16:11;7.60;99.90
56725;DHT22;42608;52.776;6.968;2023-12-20T09:18:38;7.60;99.90
56725;DHT22;42608;52.776;6.968;2023-12-20T09:21:03;7.70;99.90
56725;DHT22;42608;52.776;6.968;2023-12-20T09:23:29;7.70;99.90
56725;DHT22;42608;52.776;6.968;2023-12-20T09:25:55;7.70;99.90
56725;DHT22;42608;52.776;6.968;2023-12-20T09:28:20;7.70;99.90
56725;DHT22;42608;52.776;6.968;2023-12-20T09:30:46;7.80;99.90
56725;DHT22;42608;52.776;6.968;2023-12-20T09:33:13;7.80;99.90
56725;DHT22;42608;52.776;6.968;2023-12-20T09:35:39;7.90;99.90
56725;DHT22;42608;52.776;6.968;2023-12-20T09:38:04;7.90;99.90
56725;DHT22;42608;52.776;6.968;2023-12-20T09:40:30;7.90;99.90
56725;DHT22;42608;52.776;6.968;2023-12-20T09:42:58;7.90;99.90
56725;DHT22;42608;52.776;6.968;2023-12-20T09:45:23;7.90;99.90
56725;DHT22;42608;52.776;6.968;2023-12-20T09:47:50;7.90;99.90
56725;DHT22;42608;52.776;6.968;2023-12-20T09:50:18;7.90;99.90
56725;DHT22;42608;52.776;6.968;2023-12-20T09:52:44;8.00;99.90
56725;DHT22;42608;52.776;6.968;2023-12-20T09:55:11;8.10;99.90
56725;DHT22;42608;52.776;6.968;2023-12-20T09:57:37;8.10;99.90
56725;DHT22;42608;52.776;6.968;2023-12-20T10:00:02;8.10;99.90
56725;DHT22;42608;52.776;6.968;2023-12-20T10:02:28;8.20;99.90
56725;DHT22;42608;52.776;6.968;2023-12-20T10:04:57;8.10;99.90
56725;DHT22;42608;52.776;6.968;2023-12-20T10:07:23;8.20;99.90
56725;DHT22;42608;52.776;6.968;2023-12-20T10:09:49;8.20;99.90
56725;DHT22;42608;52.776;6.968;2023-12-20T10:12:15;8.10;99.90
56725;DHT22;42608;52.776;6.968;2023-12-20T10:14:40;8.00;99.90
56725;DHT22;42608;52.776;6.968;2023-12-20T10:17:06;7.80;99.90
56725;DHT22;42608;52.776;6.968;2023-12-20T10:19:32;7.70;99.90
56725;DHT22;42608;52.776;6.968;2023-12-20T10:21:58;7.40;99.90
56725;DHT22;42608;52.776;6.968;2023-12-20T10:24:24;7.30;99.90
56725;DHT22;42608;52.776;6.968;2023-12-20T10:27:00;7.10;99.90
56725;DHT22;42608;52.776;6.968;2023-12-20T10:29:26;7.00;99.90
56725;DHT22;42608;52.776;6.968;2023-12-20T10:31:52;6.80;99.90
56725;DHT22;42608;52.776;6.968;2023-12-20T10:34:22;6.80;99.90
56725;DHT22;42608;52.776;6.968;2023-12-20T10:36:48;6.70;99.90
56725;DHT22;42608;52.776;6.968;2023-12-20T10:39:13;6.60;99.90
56725;DHT22;42608;52.776;6.968;2023-12-20T10:41:39;6.60;99.90
56725;DHT22;42608;52.776;6.968;2023-12-20T10:44:06;6.50;99.90
56725;DHT22;42608;52.776;6.968;2023-12-20T10:46:33;6.50;99.90
56725;DHT22;42608;52.776;6.968;2023-12-20T10:48:59;6.50;99.90
56725;DHT22;42608;52.776;6.968;2023-12-20T10:51:27;6.40;99.90
56725;DHT22;42608;52.776;6.968;2023-12-20T10:53:54;6.40;99.90
56725;DHT22;42608;52.776;6.968;2023-12-20T10:56:20;6.40;99.90
56725;DHT22;42608;52.776;6.968;2023-12-20T10:58:49;6.40;99.90
56725;DHT22;42608;52.776;6.968;2023-12-20T11:01:16;6.40;99.90
56725;DHT22;42608;52.776;6.968;2023-12-20T11:03:43;6.40;99.90
56725;DHT22;42608;52.776;6.968;2023-12-20T11:09:19;6.40;99.90
56725;DHT22;42608;52.776;6.968;2023-12-20T11:14:33;6.40;99.90
56725;DHT22;42608;52.776;6.968;2023-12-20T11:17:05;6.40;99.90
56725;DHT22;42608;52.776;6.968;2023-12-20T11:19:31;6.50;99.90
56725;DHT22;42608;52.776;6.968;2023-12-20T11:21:56;6.50;99.90
56725;DHT22;42608;52.776;6.968;2023-12-20T11:24:22;6.50;99.90
56725;DHT22;42608;52.776;6.968;2023-12-20T11:26:49;6.50;99.90
56725;DHT22;42608;52.776;6.968;2023-12-20T11:29:31;6.50;99.90
56725;DHT22;42608;52.776;6.968;2023-12-20T11:31:59;6.50;99.90
56725;DHT22;42608;52.776;6.968;2023-12-20T11:34:26;6.50;99.90
56725;DHT22;42608;52.776;6.968;2023-12-20T11:36:59;6.60;99.90
56725;DHT22;42608;52.776;6.968;2023-12-20T11:39:25;6.60;99.90
56725;DHT22;42608;52.776;6.968;2023-12-20T11:41:51;6.60;99.90
56725;DHT22;42608;52.776;6.968;2023-12-20T11:44:17;6.70;99.90
56725;DHT22;42608;52.776;6.968;2023-12-20T11:46:44;6.70;99.90
56725;DHT22;42608;52.776;6.968;2023-12-20T11:49:09;6.80;99.90
56725;DHT22;42608;52.776;6.968;2023-12-20T11:51:35;6.80;99.90
56725;DHT22;42608;52.776;6.968;2023-12-20T11:54:00;6.80;99.90
56725;DHT22;42608;52.776;6.968;2023-12-20T11:56:26;6.90;99.90
56725;DHT22;42608;52.776;6.968;2023-12-20T11:58:51;6.90;99.90
56725;DHT22;42608;52.776;6.968;2023-12-20T12:01:17;6.90;99.90
56725;DHT22;42608;52.776;6.968;2023-12-20T12:03:44;6.90;99.90
56725;DHT22;42608;52.776;6.968;2023-12-20T12:06:10;7.00;99.90
56725;DHT22;42608;52.776;6.968;2023-12-20T12:08:36;7.00;99.90
56725;DHT22;42608;52.776;6.968;2023-12-20T12:11:02;7.00;99.90
56725;DHT22;42608;52.776;6.968;2023-12-20T12:13:28;7.00;99.90
56725;DHT22;42608;52.776;6.968;2023-12-20T12:15:53;7.00;99.90
56725;DHT22;42608;52.776;6.968;2023-12-20T12:18:19;7.00;99.90
56725;DHT22;42608;52.776;6.968;2023-12-20T12:20:44;7.00;99.90
56725;DHT22;42608;52.776;6.968;2023-12-20T12:23:11;7.00;99.90
56725;DHT22;42608;52.776;6.968;2023-12-20T12:25:36;7.00;99.90
56725;DHT22;42608;52.776;6.968;2023-12-20T12:28:02;7.00;99.90
56725;DHT22;42608;52.776;6.968;2023-12-20T12:30:28;7.10;99.90
56725;DHT22;42608;52.776;6.968;2023-12-20T12:32:55;7.10;99.90
56725;DHT22;42608;52.776;6.968;2023-12-20T12:35:21;7.10;99.90
56725;DHT22;42608;52.776;6.968;2023-12-20T12:37:47;7.00;99.90
56725;DHT22;42608;52.776;6.968;2023-12-20T12:40:13;7.10;99.90
56725;DHT22;42608;52.776;6.968;2023-12-20T12:42:39;7.10;99.90
56725;DHT22;42608;52.776;6.968;2023-12-20T12:45:06;7.10;99.90
56725;DHT22;42608;52.776;6.968;2023-12-20T12:47:32;7.10;99.90
56725;DHT22;42608;52.776;6.968;2023-12-20T12:49:57;7.10;99.90
56725;DHT22;42608;52.776;6.968;2023-12-20T12:52:23;7.10;99.90
56725;DHT22;42608;52.776;6.968;2023-12-20T12:54:49;7.10;99.90
56725;DHT22;42608;52.776;6.968;2023-12-20T12:57:15;7.10;99.90
56725;DHT22;42608;52.776;6.968;2023-12-20T12:59:41;7.10;99.90
56725;DHT22;42608;52.776;6.968;2023-12-20T13:02:07;7.00;99.90
56725;DHT22;42608;52.776;6.968;2023-12-20T13:04:33;7.00;99.90
56725;DHT22;42608;52.776;6.968;2023-12-20T13:06:59;7.00;99.90
56725;DHT22;42608;52.776;6.968;2023-12-20T13:09:24;7.00;99.90
56725;DHT22;42608;52.776;6.968;2023-12-20T13:11:50;7.00;99.90
56725;DHT22;42608;52.776;6.968;2023-12-20T13:14:16;7.00;99.90
56725;DHT22;42608;52.776;6.968;2023-12-20T13:16:42;7.00;99.90
56725;DHT22;42608;52.776;6.968;2023-12-20T13:19:07;7.00;99.90
56725;DHT22;42608;52.776;6.968;2023-12-20T13:21:33;6.90;99.90
56725;DHT22;42608;52.776;6.968;2023-12-20T13:23:59;7.00;99.90
56725;DHT22;42608;52.776;6.968;2023-12-20T13:26:24;6.90;99.90
56725;DHT22;42608;52.776;6.968;2023-12-20T13:28:50;6.90;99.90
56725;DHT22;42608;52.776;6.968;2023-12-20T13:31:15;6.90;99.90
56725;DHT22;42608;52.776;6.968;2023-12-20T13:33:41;6.80;99.90
56725;DHT22;42608;52.776;6.968;2023-12-20T13:36:07;6.80;99.90
56725;DHT22;42608;52.776;6.968;2023-12-20T13:38:32;6.80;99.90
56725;DHT22;42608;52.776;6.968;2023-12-20T13:40:58;6.70;99.90
56725;DHT22;42608;52.776;6.968;2023-12-20T13:43:24;6.60;99.90
56725;DHT22;42608;52.776;6.968;2023-12-20T13:45:50;6.60;99.90
56725;DHT22;42608;52.776;6.968;2023-12-20T13:48:15;6.50;99.90
56725;DHT22;42608;52.776;6.968;2023-12-20T13:50:41;6.50;99.90
56725;DHT22;42608;52.776;6.968;2023-12-20T13:53:07;6.50;99.90
56725;DHT22;42608;52.776;6.968;2023-12-20T13:55:32;6.40;99.90
56725;DHT22;42608;52.776;6.968;2023-12-20T13:57:58;6.40;99.90
56725;DHT22;42608;52.776;6.968;2023-12-20T14:00:23;6.30;99.90
56725;DHT22;42608;52.776;6.968;2023-12-20T14:02:49;6.30;99.90
56725;DHT22;42608;52.776;6.968;2023-12-20T14:05:15;6.30;99.90
56725;DHT22;42608;52.776;6.968;2023-12-20T14:07:46;6.30;99.90
56725;DHT22;42608;52.776;6.968;2023-12-20T14:10:12;6.30;99.90
56725;DHT22;42608;52.776;6.968;2023-12-20T14:12:38;6.20;99.90
56725;DHT22;42608;52.776;6.968;2023-12-20T14:15:04;6.20;99.90
56725;DHT22;42608;52.776;6.968;2023-12-20T14:17:34;6.20;99.90
56725;DHT22;42608;52.776;6.968;2023-12-20T14:20:00;6.20;99.90
56725;DHT22;42608;52.776;6.968;2023-12-20T14:22:25;6.20;99.90
56725;DHT22;42608;52.776;6.968;2023-12-20T14:24:51;6.20;99.90
56725;DHT22;42608;52.776;6.968;2023-12-20T14:27:17;6.20;99.90
56725;DHT22;42608;52.776;6.968;2023-12-20T14:29:42;6.20;99.90
56725;DHT22;42608;52.776;6.968;2023-12-20T14:32:08;6.20;99.90
56725;DHT22;42608;52.776;6.968;2023-12-20T14:34:33;6.10;99.90
56725;DHT22;42608;52.776;6.968;2023-12-20T14:36:59;6.10;99.90
56725;DHT22;42608;52.776;6.968;2023-12-20T14:39:24;6.10;99.90
56725;DHT22;42608;52.776;6.968;2023-12-20T14:41:50;6.10;99.90
56725;DHT22;42608;52.776;6.968;2023-12-20T14:44:15;6.10;99.90
56725;DHT22;42608;52.776;6.968;2023-12-20T14:46:42;6.10;99.90
56725;DHT22;42608;52.776;6.968;2023-12-20T14:49:08;6.10;99.90
56725;DHT22;42608;52.776;6.968;2023-12-20T14:51:33;6.10;99.90
56725;DHT22;42608;52.776;6.968;2023-12-20T14:53:59;6.10;99.90
56725;DHT22;42608;52.776;6.968;2023-12-20T14:56:25;6.10;99.90
56725;DHT22;42608;52.776;6.968;2023-12-20T14:58:51;6.10;99.90
56725;DHT22;42608;52.776;6.968;2023-12-20T15:01:17;6.10;99.90
56725;DHT22;42608;52.776;6.968;2023-12-20T15:03:46;6.10;99.90
56725;DHT22;42608;52.776;6.968;2023-12-20T15:06:12;6.10;99.90
56725;DHT22;42608;52.776;6.968;2023-12-20T15:08:37;6.10;99.90
56725;DHT22;42608;52.776;6.968;2023-12-20T15:11:03;6.10;99.90
56725;DHT22;42608;52.776;6.968;2023-12-20T15:13:29;6.10;99.90
56725;DHT22;42608;52.776;6.968;2023-12-20T15:15:56;6.10;99.90
56725;DHT22;42608;52.776;6.968;2023-12-20T15:18:22;6.10;99.90
56725;DHT22;42608;52.776;6.968;2023-12-20T15:20:47;6.10;99.90
56725;DHT22;42608;52.776;6.968;2023-12-20T15:23:13;6.10;99.90
56725;DHT22;42608;52.776;6.968;2023-12-20T15:25:39;6.20;99.90
56725;DHT22;42608;52.776;6.968;2023-12-20T15:28:04;6.10;99.90
56725;DHT22;42608;52.776;6.968;2023-12-20T15:30:30;6.10;99.90
56725;DHT22;42608;52.776;6.968;2023-12-20T15:32:56;6.10;99.90
56725;DHT22;42608;52.776;6.968;2023-12-20T15:35:22;6.10;99.90
56725;DHT22;42608;52.776;6.968;2023-12-20T15:37:47;6.10;99.90
56725;DHT22;42608;52.776;6.968;2023-12-20T15:40:13;6.10;99.90
56725;DHT22;42608;52.776;6.968;2023-12-20T15:42:39;6.10;99.90